Terminal Aerodrome Forecast
Issued by NWS Cleveland, OH

Home | Current Version | Previous Version | Text Only | Print | Product List | Glossary Off
Versions: 1 2 3 4 5 6 7 8 9 10 11 12 13 14 15 16 17

418
FTUS41 KCLE 162320
TAFERI
TAF
KERI 162320Z 1700/1724 31012G22KT P6SM VCSH FEW025 OVC035
      TEMPO 1702/1706 OVC030
     FM170600 33010KT P6SM OVC030
     FM171400 23005KT P6SM OVC035
     FM171700 18007KT P6SM SCT025 BKN150=

USA.gov is the U.S. government's official web portal to all federal, state and local government web resources and services.